Time;durP1;ratioP1;P1;durP2;ratioP2;P2;SDS_P1;SDS_P2;PMS_P1;PMS_P2;Temp;Humidity;BMP_temperature;BMP_pressure;BME280_temperature;BME280_humidity;BME280_pressure;Samples;Min_cycle;Max_cycle;Signal;HPM_P1;HPM_P2
2021/08/11 04:59:42;;;;;;;;;4.00;4.00;;;;;19.01;71.29;101767.13;5534814;23;45724;-77
2021/08/11 05:02:07;;;;;;;;;7.00;7.00;;;;;18.98;71.10;101772.63;4960606;28;45615;-77
2021/08/11 05:04:32;;;;;;;;;5.50;5.25;;;;;18.97;71.62;101781.53;4944498;28;46223;-77
2021/08/11 05:06:58;;;;;;;;;7.00;7.00;;;;;18.96;71.86;101779.84;4960226;28;46177;-83
2021/08/11 05:09:23;;;;;;;;;7.00;5.25;;;;;19.01;71.53;101776.94;4960035;28;45430;-80
2021/08/11 05:11:48;;;;;;;;;8.50;6.00;;;;;19.01;71.40;101785.75;4961872;28;45226;-83
2021/08/11 05:14:14;;;;;;;;;8.25;5.75;;;;;19.01;71.65;101787.59;4961365;28;45385;-83
2021/08/11 05:16:39;;;;;;;;;10.75;8.00;;;;;19.00;71.72;101793.84;4960752;28;46247;-83
2021/08/11 05:19:04;;;;;;;;;9.50;7.00;;;;;18.99;71.61;101792.97;4959639;28;45538;-83
2021/08/11 05:21:30;;;;;;;;;7.75;6.00;;;;;18.98;71.79;101798.41;4962012;28;45493;-84
2021/08/11 05:23:56;;;;;;;;;5.75;5.75;;;;;18.96;71.96;101795.81;4959846;28;45835;-84
2021/08/11 05:26:22;;;;;;;;;8.50;7.75;;;;;18.94;72.07;101795.00;4971230;28;45441;-84
2021/08/11 05:28:47;;;;;;;;;7.00;7.00;;;;;18.95;71.70;101795.88;4954287;28;45328;-84
2021/08/11 05:31:14;;;;;;;;;6.00;5.75;;;;;18.96;72.11;101802.94;4962134;28;45310;-84
2021/08/11 05:33:39;;;;;;;;;6.25;6.25;;;;;18.96;71.95;101803.81;4960979;28;45179;-84
2021/08/11 05:36:05;;;;;;;;;6.25;6.00;;;;;18.96;72.27;101794.97;4961859;28;45427;-84
2021/08/11 05:38:30;;;;;;;;;6.75;5.75;;;;;18.98;72.26;101804.59;4944350;28;45683;-84
2021/08/11 05:40:56;;;;;;;;;4.75;4.75;;;;;18.98;72.13;101801.06;4961132;28;45463;-84
2021/08/11 05:43:21;;;;;;;;;8.75;6.50;;;;;18.96;72.03;101803.81;4960953;28;45207;-84
2021/08/11 05:45:47;;;;;;;;;7.00;6.25;;;;;18.98;72.19;101814.38;4943777;28;46979;-83
2021/08/11 05:48:12;;;;;;;;;5.00;5.00;;;;;18.97;72.51;101809.97;4958028;28;45310;-84
2021/08/11 05:50:38;;;;;;;;;7.75;7.00;;;;;18.97;72.50;101810.84;4959847;28;45443;-84
2021/08/11 05:53:03;;;;;;;;;6.75;6.00;;;;;18.99;72.55;101811.63;4943638;28;45218;-84
2021/08/11 05:55:29;;;;;;;;;7.00;7.00;;;;;19.01;72.71;101811.56;4961175;28;46114;-84
2021/08/11 05:57:54;;;;;;;;;10.00;7.75;;;;;19.01;72.61;101809.75;4959074;28;45650;-85
2021/08/11 06:00:20;;;;;;;;;6.00;6.00;;;;;19.04;72.44;101822.03;4960787;28;45467;-83
2021/08/11 06:02:46;;;;;;;;;5.00;5.00;;;;;19.06;72.90;101820.16;4959667;28;45655;-84
2021/08/11 06:05:11;;;;;;;;;6.25;6.25;;;;;19.09;72.54;101820.00;4959549;28;46418;-84
2021/08/11 06:07:37;;;;;;;;;7.00;7.00;;;;;19.14;72.16;101821.59;4959687;28;45302;-84
2021/08/11 06:10:04;;;;;;;;;7.75;6.00;;;;;19.16;72.38;101825.03;4959957;28;45306;-84
2021/08/11 06:12:30;;;;;;;;;5.75;5.75;;;;;19.20;72.66;101829.28;4958348;28;45597;-84
2021/08/11 06:14:55;;;;;;;;;8.00;6.25;;;;;19.22;72.44;101830.06;4960215;28;46070;-83
2021/08/11 06:17:21;;;;;;;;;6.50;5.50;;;;;19.25;72.57;101829.91;4965452;28;45799;-83
2021/08/11 06:19:47;;;;;;;;;6.00;4.00;;;;;19.28;72.06;101829.75;4967141;28;45444;-83
2021/08/11 06:22:13;;;;;;;;;6.75;6.75;;;;;19.33;72.42;101841.00;4960461;28;45647;-83
2021/08/11 06:24:39;;;;;;;;;6.25;4.50;;;;;19.38;72.07;101829.25;4958577;28;45597;-83
2021/08/11 06:27:04;;;;;;;;;6.75;6.75;;;;;19.43;72.16;101825.38;4960007;28;45289;-83
2021/08/11 06:29:30;;;;;;;;;8.50;6.00;;;;;19.47;72.07;101827.88;4943605;28;45438;-82
2021/08/11 06:31:55;;;;;;;;;7.25;6.25;;;;;19.49;71.81;101831.31;4956156;28;46330;-82
2021/08/11 06:34:23;;;;;;;;;7.00;6.50;;;;;19.54;72.08;101832.81;4943039;28;48097;-83
2021/08/11 06:36:49;;;;;;;;;9.75;7.00;;;;;19.63;71.70;101841.25;4964303;28;45520;-82
2021/08/11 06:39:14;;;;;;;;;8.25;8.25;;;;;19.70;71.82;101831.97;4970265;28;45239;-82
2021/08/11 06:41:39;;;;;;;;;6.00;5.50;;;;;19.75;71.76;101832.59;4971517;28;45223;-82
2021/08/11 06:44:05;;;;;;;;;9.25;4.50;;;;;19.83;71.49;101837.47;4960038;28;45289;-83
2021/08/11 06:46:30;;;;;;;;;5.25;5.25;;;;;19.87;71.10;101835.53;4960737;28;45250;-82
2021/08/11 06:48:55;;;;;;;;;5.75;5.00;;;;;19.93;70.99;101835.16;4960746;28;45222;-82
2021/08/11 06:51:21;;;;;;;;;6.00;5.50;;;;;19.99;70.71;101828.63;4960656;28;45479;-82
2021/08/11 06:53:46;;;;;;;;;6.50;4.00;;;;;20.02;70.40;101834.69;4960121;28;45527;-82
2021/08/11 06:56:12;;;;;;;;;6.00;4.00;;;;;20.05;70.46;101827.44;4958737;28;45352;-82
2021/08/11 06:58:37;;;;;;;;;5.00;5.00;;;;;20.08;70.19;101827.25;4959267;28;45266;-83
2021/08/11 07:01:03;;;;;;;;;5.00;3.25;;;;;20.14;70.06;101829.63;4949121;28;46547;-83
2021/08/11 07:03:29;;;;;;;;;5.25;4.00;;;;;20.19;69.62;101837.34;4976761;28;47221;-82
2021/08/11 07:05:54;;;;;;;;;4.00;4.00;;;;;20.25;69.46;101829.00;4979706;28;45732;-83
2021/08/11 07:08:20;;;;;;;;;7.00;5.00;;;;;20.30;69.23;101831.38;4978529;28;45491;-82
2021/08/11 07:10:47;;;;;;;;;5.00;4.75;;;;;20.35;69.10;101832.84;4979558;28;45493;-83
2021/08/11 07:13:12;;;;;;;;;3.00;3.00;;;;;20.40;68.21;101832.59;4978694;28;45332;-82
2021/08/11 07:15:37;;;;;;;;;3.00;3.00;;;;;20.44;67.41;101826.16;4961562;28;45368;-83
2021/08/11 07:18:03;;;;;;;;;3.50;3.25;;;;;20.50;67.53;101826.72;4979826;28;45636;-83
2021/08/11 07:20:30;;;;;;;;;3.50;3.00;;;;;20.54;67.85;101829.13;4979449;28;45320;-82
2021/08/11 07:22:58;;;;;;;;;3.25;3.25;;;;;20.59;67.71;101831.53;4961452;28;47014;-83
2021/08/11 07:25:27;;;;;;;;;5.50;3.25;;;;;20.65;67.59;101835.63;4971020;28;45459;-83
2021/08/11 07:27:53;;;;;;;;;4.00;3.50;;;;;20.71;67.70;101837.09;4981015;28;45453;-83
2021/08/11 07:30:19;;;;;;;;;5.25;3.25;;;;;20.76;67.27;101837.69;4995606;28;45501;-83
2021/08/11 07:32:45;;;;;;;;;7.00;5.00;;;;;20.76;66.95;101843.03;4987189;28;45555;-84
2021/08/11 07:35:11;;;;;;;;;6.00;4.25;;;;;20.71;66.73;101834.44;4978652;28;45222;-85
2021/08/11 07:37:48;;;;;;;;;8.00;6.25;;;;;20.76;65.82;101848.38;4980444;28;45672;-85
2021/08/11 07:40:14;;;;;;;;;6.00;5.00;;;;;20.78;65.79;101857.16;4982499;28;45295;-83
2021/08/11 07:42:41;;;;;;;;;5.75;4.75;;;;;20.81;66.23;101856.97;4982454;28;46575;-83
2021/08/11 07:45:08;;;;;;;;;6.00;4.25;;;;;20.86;66.18;101859.38;4982019;28;45388;-83
2021/08/11 07:47:33;;;;;;;;;6.00;5.00;;;;;20.90;66.40;101868.91;4959434;28;45359;-83
2021/08/11 07:49:58;;;;;;;;;6.00;6.00;;;;;20.90;65.24;101861.78;4976908;28;45484;-83
2021/08/11 07:52:24;;;;;;;;;7.50;6.00;;;;;20.91;65.68;101865.31;4980967;28;45468;-83
2021/08/11 07:54:49;;;;;;;;;6.25;6.25;;;;;20.91;65.66;101859.97;4979701;28;47471;-82
2021/08/11 07:57:14;;;;;;;;;10.50;5.75;;;;;20.92;65.44;101859.88;4999343;28;45254;-82
2021/08/11 07:59:40;;;;;;;;;4.00;2.75;;;;;20.92;64.80;101859.00;4987582;28;45490;-82
2021/08/11 08:02:10;;;;;;;;;5.50;5.00;;;;;20.90;65.39;101851.09;4989021;28;45451;-83
2021/08/11 08:04:35;;;;;;;;;6.25;6.25;;;;;20.95;65.36;101847.28;4981781;28;45480;-83
2021/08/11 08:07:00;;;;;;;;;5.50;5.50;;;;;20.98;65.16;101847.09;4981505;28;45708;-83
2021/08/11 08:09:26;;;;;;;;;6.50;6.00;;;;;21.02;64.91;101841.50;4982335;28;45828;-83
2021/08/11 08:11:51;;;;;;;;;6.00;6.00;;;;;21.05;64.38;101837.78;4981064;28;45430;-83
2021/08/11 08:14:16;;;;;;;;;8.25;6.75;;;;;21.08;63.94;101840.28;4988384;28;47061;-83
2021/08/11 08:16:42;;;;;;;;;5.00;5.00;;;;;21.08;64.35;101831.41;4988899;28;45718;-83
2021/08/11 08:19:07;;;;;;;;;6.75;5.75;;;;;21.08;63.78;101834.94;4982073;28;45479;-83
2021/08/11 08:21:32;;;;;;;;;5.75;5.75;;;;;21.11;64.41;101829.38;4976384;28;45926;-82
2021/08/11 08:23:58;;;;;;;;;5.25;5.00;;;;;21.16;63.99;101828.25;4980332;28;45526;-82
2021/08/11 08:26:23;;;;;;;;;5.75;5.75;;;;;21.21;63.78;101823.50;4980360;28;45325;-82
2021/08/11 08:28:50;;;;;;;;;5.25;5.25;;;;;21.24;63.72;101831.31;4981971;28;45547;-82
2021/08/11 08:31:16;;;;;;;;;5.00;4.50;;;;;21.28;63.71;101827.50;4976618;28;46298;-82
2021/08/11 08:33:41;;;;;;;;;5.00;4.75;;;;;21.34;63.55;101835.13;4979123;28;45179;-82
2021/08/11 08:36:07;;;;;;;;;6.25;3.50;;;;;21.35;63.52;101839.53;4971442;28;45297;-82
2021/08/11 08:38:32;;;;;;;;;3.75;3.75;;;;;21.38;63.54;101830.47;4964318;28;46027;-82
2021/08/11 08:40:58;;;;;;;;;5.00;4.50;;;;;21.40;62.89;101835.72;4976770;28;46623;-82
2021/08/11 08:43:23;;;;;;;;;5.75;5.75;;;;;21.43;62.54;101838.19;4990139;28;45322;-82
2021/08/11 08:45:49;;;;;;;;;4.00;4.00;;;;;21.45;63.15;101833.63;4987194;28;45577;-82
2021/08/11 08:48:15;;;;;;;;;8.25;5.50;;;;;21.44;62.54;101837.22;4981997;28;45409;-82
2021/08/11 08:50:42;;;;;;;;;5.00;4.00;;;;;21.43;62.19;101835.53;4992734;28;45329;-82
2021/08/11 08:53:09;;;;;;;;;4.00;4.00;;;;;21.45;62.52;101834.47;4977222;28;46002;-82
2021/08/11 08:55:35;;;;;;;;;6.50;5.25;;;;;21.48;62.48;101833.44;4983967;28;45247;-82
2021/08/11 08:58:04;;;;;;;;;6.00;6.00;;;;;21.51;61.67;101830.53;4981713;28;45521;-82
2021/08/11 09:00:31;;;;;;;;;4.75;4.75;;;;;21.53;61.80;101825.94;4979913;28;46160;-82
2021/08/11 09:02:56;;;;;;;;;4.00;4.00;;;;;21.57;61.24;101823.97;4981760;28;45348;-82
2021/08/11 09:05:22;;;;;;;;;6.00;6.00;;;;;21.61;61.52;101833.50;4982119;28;45292;-82
2021/08/11 09:07:49;;;;;;;;;4.00;4.00;;;;;21.66;61.79;101835.88;4990682;28;45329;-82
2021/08/11 09:10:28;;;;;;;;;5.75;5.75;;;;;21.72;61.48;101831.97;4987099;28;47894;-83
2021/08/11 09:12:57;;;;;;;;;7.00;4.50;;;;;21.78;61.17;101823.56;4986053;28;45998;-82
2021/08/11 09:15:42;;;;;;;;;6.00;5.00;;;;;21.87;61.57;101824.81;4987717;28;45401;-82
2021/08/11 09:18:13;;;;;;;;;5.75;5.25;;;;;21.94;61.54;101831.50;4981744;28;45318;-82
2021/08/11 09:20:39;;;;;;;;;3.50;3.50;;;;;22.00;60.98;101828.41;4963858;28;46982;-83
2021/08/11 09:23:05;;;;;;;;;7.50;5.50;;;;;22.05;61.12;101820.06;4981314;28;45301;-82
2021/08/11 09:25:30;;;;;;;;;4.75;4.75;;;;;22.14;60.71;101813.28;4993061;28;45238;-82
2021/08/11 09:27:56;;;;;;;;;6.50;5.00;;;;;22.24;60.51;101813.53;4989000;28;45696;-82
2021/08/11 09:30:23;;;;;;;;;5.00;5.00;;;;;22.30;59.63;101812.28;4985193;28;45441;-82
2021/08/11 09:33:05;;;;;;;;;5.50;4.50;;;;;22.36;60.35;101811.84;4980853;28;45538;-83
2021/08/11 09:35:37;;;;;;;;;5.00;4.00;;;;;22.41;60.07;101817.75;4982339;28;45316;-82
2021/08/11 09:38:06;;;;;;;;;6.50;5.50;;;;;22.46;59.65;101818.31;4990421;28;46216;-82
2021/08/11 09:40:36;;;;;;;;;8.00;5.75;;;;;22.48;58.51;101824.41;4980483;28;46451;-82
2021/08/11 09:43:04;;;;;;;;;8.00;6.00;;;;;22.53;58.89;101833.97;4993870;28;45220;-82
2021/08/11 09:45:48;;;;;;;;;8.00;5.00;;;;;22.53;58.41;101824.09;4993952;28;45321;-82
2021/08/11 09:48:16;;;;;;;;;7.50;7.00;;;;;22.55;58.55;101824.00;4981168;28;45447;-82
2021/08/11 09:50:46;;;;;;;;;5.00;5.00;;;;;22.57;59.39;101824.78;4993149;28;46170;-82
2021/08/11 09:53:31;;;;;;;;;6.00;6.00;;;;;22.60;59.09;101827.22;4980906;28;45199;-82
2021/08/11 09:56:07;;;;;;;;;5.25;5.25;;;;;22.61;59.06;101826.28;4984723;28;45423;-82
2021/08/11 09:58:38;;;;;;;;;6.00;5.00;;;;;22.60;58.51;101821.88;4987004;28;46569;-82
2021/08/11 10:01:05;;;;;;;;;4.25;4.25;;;;;22.58;58.15;101827.34;4978598;28;45629;-82
2021/08/11 10:03:32;;;;;;;;;5.25;5.25;;;;;22.57;58.09;101822.09;4999140;28;45522;-82
2021/08/11 10:05:58;;;;;;;;;8.25;6.25;;;;;22.58;58.72;101823.78;4981206;28;45259;-82
2021/08/11 10:08:31;;;;;;;;;4.75;4.75;;;;;22.59;58.81;101814.81;4980614;28;45563;-82
2021/08/11 10:10:57;;;;;;;;;5.50;5.50;;;;;22.60;58.38;101819.19;4994515;28;46130;-82
2021/08/11 10:13:24;;;;;;;;;6.75;4.75;;;;;22.59;58.25;101817.50;4983427;28;45526;-82
2021/08/11 10:15:50;;;;;;;;;6.25;5.00;;;;;22.64;58.24;101812.69;4989002;28;45692;-82
2021/08/11 10:18:26;;;;;;;;;7.00;5.75;;;;;22.71;57.19;101826.53;4984330;28;45397;-82
2021/08/11 10:20:55;;;;;;;;;5.00;5.00;;;;;22.78;58.19;101811.75;4980563;28;45297;-82
2021/08/11 10:23:21;;;;;;;;;5.00;5.00;;;;;22.87;56.82;101812.94;4986050;28;45291;-83
2021/08/11 10:25:48;;;;;;;;;5.50;4.25;;;;;22.96;56.98;101813.28;4989862;28;45416;-83
2021/08/11 10:28:17;;;;;;;;;6.00;6.00;;;;;23.03;57.69;101799.34;4961652;28;46167;-82
2021/08/11 10:30:43;;;;;;;;;4.25;4.25;;;;;23.10;57.76;101805.13;4976134;28;45506;-83
2021/08/11 10:33:09;;;;;;;;;5.50;5.50;;;;;23.14;57.83;101806.63;4973542;28;45666;-83
2021/08/11 10:35:35;;;;;;;;;5.00;5.00;;;;;23.15;57.64;101811.03;4979046;28;45488;-83
2021/08/11 10:38:03;;;;;;;;;5.00;4.50;;;;;23.11;57.91;101806.00;4976167;28;45475;-83
2021/08/11 10:40:29;;;;;;;;;6.75;6.75;;;;;23.12;57.16;101805.00;4984312;28;45526;-83
2021/08/11 10:42:58;;;;;;;;;6.75;6.00;;;;;23.14;56.47;101806.63;4954317;28;45391;-83
2021/08/11 10:45:25;;;;;;;;;6.75;6.50;;;;;23.21;57.28;101807.03;4968905;28;45434;-83
2021/08/11 10:47:51;;;;;;;;;7.00;4.50;;;;;23.30;56.86;101807.38;4989689;28;45495;-83
2021/08/11 10:50:17;;;;;;;;;6.50;6.50;;;;;23.33;55.89;101805.34;4979939;28;45269;-82
2021/08/11 10:52:43;;;;;;;;;6.00;6.00;;;;;23.37;56.35;101811.31;4965300;28;45403;-83
2021/08/11 10:55:09;;;;;;;;;7.00;6.25;;;;;23.41;56.33;101811.97;4962192;28;45323;-82
2021/08/11 10:57:37;;;;;;;;;6.50;5.25;;;;;23.42;56.04;101805.63;4978358;28;45295;-82
2021/08/11 11:00:11;;;;;;;;;6.00;5.00;;;;;23.43;56.50;101802.00;4978619;28;45404;-82
2021/08/11 11:02:40;;;;;;;;;6.50;5.25;;;;;23.46;56.52;101794.56;4977074;28;45407;-82
2021/08/11 11:05:28;;;;;;;;;7.00;5.75;;;;;23.46;56.89;101805.31;4980651;28;45242;-82
2021/08/11 11:08:15;;;;;;;;;8.00;5.25;;;;;23.45;56.62;101800.91;4979494;28;45280;-82
2021/08/11 11:10:46;;;;;;;;;4.50;4.00;;;;;23.38;56.34;101795.13;4973118;28;47570;-82
2021/08/11 11:13:28;;;;;;;;;7.25;6.25;;;;;23.39;56.42;101798.66;4979943;28;45235;-82
2021/08/11 11:15:54;;;;;;;;;7.00;5.50;;;;;23.33;56.79;101791.94;4982558;28;45333;-83
2021/08/11 11:18:21;;;;;;;;;4.75;4.75;;;;;23.30;56.53;101783.22;4963107;28;46379;-84
2021/08/11 11:21:12;;;;;;;;;7.75;6.75;;;;;23.30;56.52;101783.22;4983111;28;46202;-84
2021/08/11 11:23:42;;;;;;;;;5.00;5.00;;;;;23.25;56.55;101791.59;4957589;28;45290;-83
2021/08/11 11:26:10;;;;;;;;;6.75;6.75;;;;;23.21;56.95;101782.91;4973373;28;45238;-84
2021/08/11 11:28:58;;;;;;;;;5.50;4.25;;;;;23.19;57.03;101782.16;4978360;28;45796;-84
2021/08/11 11:31:33;;;;;;;;;4.75;4.75;;;;;23.18;56.51;101782.28;4980438;28;46312;-83
2021/08/11 11:34:18;;;;;;;;;6.50;4.75;;;;;23.14;57.01;101782.50;4972176;28;45528;-84
2021/08/11 11:36:44;;;;;;;;;5.25;5.00;;;;;23.06;56.55;101771.47;4982803;28;45463;-83
2021/08/11 11:39:12;;;;;;;;;6.75;3.75;;;;;23.04;56.88;101779.59;4982280;28;45318;-83
2021/08/11 11:41:58;;;;;;;;;4.00;4.00;;;;;23.00;57.20;101769.19;4983045;28;46190;-83
2021/08/11 11:44:42;;;;;;;;;7.00;5.75;;;;;22.96;57.26;101770.38;4969495;28;45496;-83
2021/08/11 11:47:09;;;;;;;;;5.50;4.75;;;;;22.95;57.41;101768.66;4965514;28;45445;-83
2021/08/11 11:49:34;;;;;;;;;5.50;5.50;;;;;22.88;56.52;101769.09;4981199;28;45360;-84
2021/08/11 11:52:01;;;;;;;;;7.50;6.00;;;;;22.91;56.08;101774.25;4980169;28;45962;-83
2021/08/11 11:54:26;;;;;;;;;6.25;6.00;;;;;22.99;55.88;101780.91;4979981;28;45368;-83
2021/08/11 11:56:52;;;;;;;;;4.25;4.25;;;;;23.07;54.62;101767.81;4982706;28;45494;-84
2021/08/11 11:59:17;;;;;;;;;6.75;6.75;;;;;23.26;54.78;101764.66;4970406;28;45459;-83
2021/08/11 12:01:44;;;;;;;;;5.75;4.25;;;;;23.47;55.28;101757.88;4991802;28;48350;-83
2021/08/11 12:04:10;;;;;;;;;5.75;5.00;;;;;23.62;55.09;101764.00;4983055;28;45313;-84
2021/08/11 12:06:40;;;;;;;;;5.00;5.00;;;;;23.74;55.14;101764.03;4981076;28;45345;-84
2021/08/11 12:09:05;;;;;;;;;7.00;5.50;;;;;23.75;54.77;101766.63;4981531;28;46199;-84
2021/08/11 12:11:33;;;;;;;;;5.00;4.50;;;;;23.71;54.35;101766.00;4982793;28;47185;-84
2021/08/11 12:14:01;;;;;;;;;4.75;4.75;;;;;23.64;54.59;101764.72;4998844;28;45662;-84
2021/08/11 12:16:34;;;;;;;;;6.00;6.00;;;;;23.62;54.14;101765.81;4988236;28;45207;-84
2021/08/11 12:19:12;;;;;;;;;5.25;4.50;;;;;23.60;54.13;101769.47;4982458;28;45417;-83
2021/08/11 12:21:38;;;;;;;;;8.25;5.00;;;;;23.61;53.61;101764.94;4964798;28;48158;-83
2021/08/11 12:24:03;;;;;;;;;6.50;4.25;;;;;23.58;54.66;101766.03;4981266;28;45213;-84
2021/08/11 12:26:31;;;;;;;;;4.75;4.00;;;;;23.55;54.02;101754.66;4982293;28;45262;-83
2021/08/11 12:28:58;;;;;;;;;5.50;4.50;;;;;23.56;53.61;101754.56;4985349;28;45459;-84
2021/08/11 12:31:26;;;;;;;;;5.25;3.75;;;;;23.59;53.64;101754.34;4976564;28;46334;-83
2021/08/11 12:33:54;;;;;;;;;3.25;3.25;;;;;23.60;54.27;101747.16;4978910;28;45749;-83
2021/08/11 12:36:41;;;;;;;;;5.25;5.25;;;;;23.61;54.08;101754.22;4969656;28;45660;-83
2021/08/11 12:39:07;;;;;;;;;7.00;6.00;;;;;23.72;54.32;101756.13;4984455;28;45520;-84
2021/08/11 12:41:35;;;;;;;;;5.25;5.25;;;;;23.79;53.77;101752.00;4991256;28;46906;-83
2021/08/11 12:44:20;;;;;;;;;6.00;6.00;;;;;23.87;53.88;101754.13;4992528;28;46408;-84
2021/08/11 12:46:48;;;;;;;;;3.75;3.75;;;;;23.98;52.36;101750.63;4979487;28;45440;-83
2021/08/11 12:49:16;;;;;;;;;5.00;5.00;;;;;24.08;53.11;101758.00;4981577;28;45520;-83
2021/08/11 12:51:42;;;;;;;;;4.75;3.75;;;;;24.10;52.86;101748.00;4981493;28;45479;-83
2021/08/11 12:54:08;;;;;;;;;8.00;5.50;;;;;24.14;52.82;101747.66;4962854;28;45737;-83
2021/08/11 12:56:52;;;;;;;;;4.75;4.75;;;;;24.20;52.64;101749.00;4964132;28;45374;-83
2021/08/11 12:59:18;;;;;;;;;6.50;5.00;;;;;24.28;52.05;101745.78;4980255;28;45418;-83
2021/08/11 13:01:45;;;;;;;;;4.00;4.00;;;;;24.37;51.24;101752.28;4980517;28;45624;-83
2021/08/11 13:04:24;;;;;;;;;4.00;4.00;;;;;24.50;52.39;101752.19;4981128;28;45546;-83
2021/08/11 13:06:52;;;;;;;;;4.75;4.75;;;;;24.53;51.43;101759.16;4959624;28;45365;-83
2021/08/11 13:09:31;;;;;;;;;7.50;4.75;;;;;24.57;51.85;101753.44;4976726;28;45351;-83
2021/08/11 13:12:02;;;;;;;;;5.50;5.25;;;;;24.64;51.83;101755.66;4981106;28;45468;-83
2021/08/11 13:14:46;;;;;;;;;5.00;4.25;;;;;24.69;51.51;101748.91;4963799;28;45375;-84
2021/08/11 13:17:14;;;;;;;;;4.00;4.00;;;;;24.75;51.83;101752.13;4972028;28;45721;-83
2021/08/11 13:19:39;;;;;;;;;5.75;5.00;;;;;24.71;51.88;101743.44;4981386;28;45265;-83
2021/08/11 13:22:05;;;;;;;;;3.75;3.75;;;;;24.66;51.93;101743.81;4981471;28;46399;-83
2021/08/11 13:24:30;;;;;;;;;6.75;5.00;;;;;24.61;52.18;101741.47;4981265;28;45230;-83
2021/08/11 13:26:57;;;;;;;;;6.25;5.75;;;;;24.60;51.83;101738.91;4976784;28;45728;-83
2021/08/11 13:29:35;;;;;;;;;5.00;4.75;;;;;24.64;51.87;101735.03;4974773;28;45513;-83
2021/08/11 13:32:00;;;;;;;;;5.25;4.00;;;;;24.64;51.78;101742.22;4981217;28;46600;-83
2021/08/11 13:34:26;;;;;;;;;5.00;4.25;;;;;24.66;50.83;101738.44;4980122;28;45620;-83
2021/08/11 13:36:51;;;;;;;;;6.00;4.50;;;;;24.69;51.71;101735.50;4980851;28;45491;-83
2021/08/11 13:39:17;;;;;;;;;6.50;5.50;;;;;24.70;51.56;101742.59;4981116;28;45525;-80
2021/08/11 13:41:43;;;;;;;;;5.75;5.75;;;;;24.70;51.43;101744.41;4962940;28;48392;-80
2021/08/11 13:44:11;;;;;;;;;3.50;3.50;;;;;24.65;51.46;101735.84;4981029;28;45541;-81
2021/08/11 13:46:37;;;;;;;;;6.25;3.75;;;;;24.56;50.67;101742.81;4981122;28;45250;-80
2021/08/11 13:49:02;;;;;;;;;5.00;5.00;;;;;24.55;50.96;101738.41;4975901;28;46119;-80
2021/08/11 13:51:28;;;;;;;;;5.00;3.25;;;;;24.56;49.52;101737.44;4966755;28;48014;-80
2021/08/11 13:53:53;;;;;;;;;4.00;4.00;;;;;24.64;49.61;101728.78;4980615;28;45155;-80
2021/08/11 13:56:21;;;;;;;;;4.25;3.75;;;;;24.76;48.63;101726.97;4981187;28;45756;-80
2021/08/11 13:58:47;;;;;;;;;5.75;5.50;;;;;24.88;50.17;101725.13;4991130;28;45464;-80
2021/08/11 14:01:13;;;;;;;;;5.25;4.00;;;;;24.91;49.62;101723.06;4962971;28;47979;-80
2021/08/11 14:03:38;;;;;;;;;3.25;2.00;;;;;24.91;47.35;101724.91;4963341;28;45346;-80
2021/08/11 14:06:03;;;;;;;;;3.50;3.25;;;;;24.95;47.66;101716.47;4981018;28;45342;-80
2021/08/11 14:08:29;;;;;;;;;2.50;2.50;;;;;24.96;47.82;101711.94;4959929;28;45912;-80
2021/08/11 14:10:54;;;;;;;;;3.25;3.25;;;;;25.04;49.43;101708.66;4975368;28;46462;-80
2021/08/11 14:13:19;;;;;;;;;4.75;4.25;;;;;25.09;49.43;101700.25;4980282;28;45219;-81
2021/08/11 14:15:45;;;;;;;;;3.00;3.00;;;;;25.04;49.07;101703.28;4963135;28;45452;-81
2021/08/11 14:18:10;;;;;;;;;2.00;2.00;;;;;25.01;48.76;101706.22;4978766;28;45361;-81
2021/08/11 14:20:35;;;;;;;;;5.00;3.25;;;;;25.00;49.81;101705.38;4980109;28;45382;-80
2021/08/11 14:23:01;;;;;;;;;4.25;3.25;;;;;24.99;48.83;101702.78;4980517;28;45226;-80
2021/08/11 14:25:26;;;;;;;;;6.50;4.75;;;;;25.00;49.41;101701.81;4962922;28;45448;-80
2021/08/11 14:27:51;;;;;;;;;5.25;3.25;;;;;24.98;49.95;101703.75;4979813;28;45445;-81
2021/08/11 14:30:17;;;;;;;;;4.25;3.00;;;;;24.98;48.23;101695.69;4980320;28;45408;-81
2021/08/11 14:32:46;;;;;;;;;4.25;3.50;;;;;25.05;47.40;101702.31;4980128;28;45137;-80
2021/08/11 14:35:11;;;;;;;;;3.50;3.50;;;;;25.13;49.08;101697.19;4962717;28;45329;-80
2021/08/11 14:37:37;;;;;;;;;5.25;4.00;;;;;25.19;47.99;101692.28;4962428;28;45942;-80
2021/08/11 14:40:03;;;;;;;;;6.25;3.25;;;;;25.27;46.96;101689.81;4979095;28;46478;-81
2021/08/11 14:42:28;;;;;;;;;3.50;3.50;;;;;25.31;47.14;101682.34;4980194;28;45476;-80
2021/08/11 14:44:54;;;;;;;;;4.00;3.75;;;;;25.42;46.51;101670.69;4980170;28;45719;-80
2021/08/11 14:47:19;;;;;;;;;3.00;3.00;;;;;25.53;46.79;101676.06;4979395;28;45306;-81
2021/08/11 14:49:44;;;;;;;;;4.75;4.25;;;;;25.64;45.83;101672.47;4980014;28;45561;-81
2021/08/11 14:52:10;;;;;;;;;4.00;3.25;;;;;25.73;46.08;101671.72;4979456;28;45382;-81
2021/08/11 14:54:36;;;;;;;;;6.25;4.25;;;;;25.81;45.84;101665.69;4979694;28;45276;-81
2021/08/11 14:57:01;;;;;;;;;4.25;3.50;;;;;25.90;45.87;101664.09;4980260;28;45250;-81
2021/08/11 14:59:27;;;;;;;;;4.50;3.25;;;;;25.97;45.69;101659.03;4979758;28;45675;-80
2021/08/11 15:01:52;;;;;;;;;4.25;3.75;;;;;26.05;46.10;101658.38;4979176;28;45234;-80
2021/08/11 15:04:17;;;;;;;;;4.25;3.50;;;;;26.09;46.38;101651.72;4980080;28;45223;-81
2021/08/11 15:06:43;;;;;;;;;3.75;3.75;;;;;26.05;46.52;101661.88;4980015;28;45412;-81
2021/08/11 15:09:08;;;;;;;;;4.00;4.00;;;;;25.95;46.80;101656.44;4979289;28;45652;-82
2021/08/11 15:11:33;;;;;;;;;4.00;4.00;;;;;25.79;47.19;101664.13;4961186;28;45983;-82
2021/08/11 15:13:59;;;;;;;;;3.25;3.25;;;;;25.66;47.00;101665.09;4979902;28;45282;-75
2021/08/11 15:16:24;;;;;;;;;6.50;6.50;;;;;25.56;47.15;101659.63;4979843;28;45549;-74
2021/08/11 15:18:50;;;;;;;;;6.50;5.00;;;;;25.53;47.32;101656.38;4979767;28;46249;-75
2021/08/11 15:21:16;;;;;;;;;4.00;4.00;;;;;25.53;46.83;101657.22;4979288;28;45333;-74
2021/08/11 15:23:41;;;;;;;;;3.75;2.75;;;;;25.51;47.46;101667.22;4978031;28;45420;-74
2021/08/11 15:26:07;;;;;;;;;5.00;5.00;;;;;25.48;46.19;101660.28;4978883;28;45519;-75
2021/08/11 15:28:32;;;;;;;;;5.50;5.25;;;;;25.49;45.71;101661.13;4979284;28;45491;-75
2021/08/11 15:30:58;;;;;;;;;9.00;7.00;;;;;25.56;47.27;101654.25;4979170;28;45327;-74
2021/08/11 15:33:23;;;;;;;;;7.00;5.00;;;;;25.59;46.83;101663.91;4979715;28;45305;-77
2021/08/11 15:35:49;;;;;;;;;3.75;3.75;;;;;25.63;46.29;101665.38;4979105;28;45795;-76
2021/08/11 15:38:14;;;;;;;;;5.00;4.50;;;;;25.66;45.84;101665.09;4961589;28;47033;-76
2021/08/11 15:40:39;;;;;;;;;6.25;5.50;;;;;25.75;45.10;101673.44;4979357;28;45393;-76
2021/08/11 15:43:05;;;;;;;;;4.50;3.25;;;;;25.81;44.83;101664.84;4962157;28;45421;-76
2021/08/11 15:45:30;;;;;;;;;4.00;4.00;;;;;25.89;45.30;101656.97;4978865;28;45223;-76
2021/08/11 15:47:55;;;;;;;;;4.00;4.00;;;;;25.94;44.97;101656.56;4979296;28;45360;-76
2021/08/11 15:50:21;;;;;;;;;4.75;4.00;;;;;26.00;44.72;101649.81;4979138;28;45530;-76
2021/08/11 15:52:46;;;;;;;;;8.00;6.50;;;;;26.03;45.49;101653.09;4979676;28;45408;-76
2021/08/11 15:55:12;;;;;;;;;5.00;4.50;;;;;26.06;44.99;101660.06;4979133;28;45967;-76
2021/08/11 15:57:37;;;;;;;;;5.25;5.25;;;;;26.08;45.47;101658.09;4979939;28;46017;-76
2021/08/11 16:00:06;;;;;;;;;7.50;5.25;;;;;26.10;45.47;101664.19;4981644;28;45541;-76
2021/08/11 16:02:32;;;;;;;;;6.00;6.00;;;;;26.11;45.37;101665.06;4981833;28;45508;-76
2021/08/11 16:04:57;;;;;;;;;5.25;5.25;;;;;26.12;44.51;101669.47;4982357;28;45296;-76
2021/08/11 16:07:23;;;;;;;;;6.50;5.50;;;;;26.13;44.62;101671.16;4982143;28;46256;-76
2021/08/11 16:09:48;;;;;;;;;6.00;6.00;;;;;26.13;44.80;101665.78;4964333;28;45746;-76
2021/08/11 16:12:14;;;;;;;;;7.00;5.75;;;;;26.15;45.06;101658.44;4982456;28;45410;-76
2021/08/11 16:14:39;;;;;;;;;9.00;7.50;;;;;26.16;44.16;101652.03;4982166;28;45535;-76
2021/08/11 16:17:05;;;;;;;;;7.25;6.75;;;;;26.22;44.27;101653.38;4982399;28;45280;-76
2021/08/11 16:19:31;;;;;;;;;7.25;6.50;;;;;26.24;44.92;101654.94;4982531;28;45662;-76
2021/08/11 16:21:56;;;;;;;;;8.75;5.00;;;;;26.27;44.63;101656.53;4964647;28;45263;-76
2021/08/11 16:24:21;;;;;;;;;11.25;6.00;;;;;26.28;44.18;101656.38;4982325;28;45238;-76